sensor_id;sensor_type;location;lat;lon;timestamp;pressure;altitude;pressure_sealevel;temperature;humidity
8366;BME280;4220;42.502;24.188;2023-03-22T00:01:17;94829.75;;;11.43;100.00
8366;BME280;4220;42.502;24.188;2023-03-22T00:03:48;94829.56;;;11.44;100.00
8366;BME280;4220;42.502;24.188;2023-03-22T00:06:15;94834.03;;;11.44;100.00
8366;BME280;4220;42.502;24.188;2023-03-22T00:08:43;94836.03;;;11.37;100.00
8366;BME280;4220;42.502;24.188;2023-03-22T00:11:11;94829.44;;;11.39;100.00
8366;BME280;4220;42.502;24.188;2023-03-22T00:13:38;94839.94;;;11.46;100.00
8366;BME280;4220;42.502;24.188;2023-03-22T00:16:08;94834.50;;;11.41;100.00
8366;BME280;4220;42.502;24.188;2023-03-22T00:18:35;94836.84;;;11.37;100.00
8366;BME280;4220;42.502;24.188;2023-03-22T00:21:02;94834.41;;;11.36;100.00
8366;BME280;4220;42.502;24.188;2023-03-22T00:23:29;94833.38;;;11.25;100.00
8366;BME280;4220;42.502;24.188;2023-03-22T00:25:57;94829.78;;;11.31;100.00
8366;BME280;4220;42.502;24.188;2023-03-22T00:28:24;94830.72;;;11.37;100.00
8366;BME280;4220;42.502;24.188;2023-03-22T00:30:52;94835.06;;;11.43;100.00
8366;BME280;4220;42.502;24.188;2023-03-22T00:33:21;94830.47;;;11.38;100.00
8366;BME280;4220;42.502;24.188;2023-03-22T00:35:49;94832.66;;;11.41;100.00
8366;BME280;4220;42.502;24.188;2023-03-22T00:38:16;94836.69;;;11.44;100.00
8366;BME280;4220;42.502;24.188;2023-03-22T00:40:43;94829.75;;;11.43;100.00
8366;BME280;4220;42.502;24.188;2023-03-22T00:43:11;94829.75;;;11.43;100.00
8366;BME280;4220;42.502;24.188;2023-03-22T00:45:38;94828.84;;;11.49;100.00
8366;BME280;4220;42.502;24.188;2023-03-22T00:48:06;94826.66;;;11.46;100.00
8366;BME280;4220;42.502;24.188;2023-03-22T00:50:33;94822.84;;;11.42;100.00
8366;BME280;4220;42.502;24.188;2023-03-22T00:53:00;94826.91;;;11.44;100.00
8366;BME280;4220;42.502;24.188;2023-03-22T00:55:27;94830.03;;;11.30;100.00
8366;BME280;4220;42.502;24.188;2023-03-22T00:57:54;94791.38;;;11.10;100.00
8366;BME280;4220;42.502;24.188;2023-03-22T01:00:23;94827.00;;;11.38;100.00
8366;BME280;4220;42.502;24.188;2023-03-22T01:02:50;94822.28;;;11.40;100.00
8366;BME280;4220;42.502;24.188;2023-03-22T01:05:18;94817.53;;;11.42;100.00
8366;BME280;4220;42.502;24.188;2023-03-22T01:07:46;94797.34;;;11.29;100.00
8366;BME280;4220;42.502;24.188;2023-03-22T01:10:17;94783.19;;;11.12;100.00
8366;BME280;4220;42.502;24.188;2023-03-22T01:12:44;94802.81;;;11.23;100.00
8366;BME280;4220;42.502;24.188;2023-03-22T01:15:11;94811.31;;;11.25;100.00
8366;BME280;4220;42.502;24.188;2023-03-22T01:17:39;94808.53;;;11.31;100.00
8366;BME280;4220;42.502;24.188;2023-03-22T01:20:08;94809.94;;;11.34;100.00
8366;BME280;4220;42.502;24.188;2023-03-22T01:22:35;94786.50;;;11.19;100.00
8366;BME280;4220;42.502;24.188;2023-03-22T01:25:02;94805.78;;;11.26;100.00
8366;BME280;4220;42.502;24.188;2023-03-22T01:27:29;94807.28;;;11.22;100.00
8366;BME280;4220;42.502;24.188;2023-03-22T01:29:56;94809.47;;;11.13;100.00
8366;BME280;4220;42.502;24.188;2023-03-22T01:32:23;94805.53;;;11.16;100.00
8366;BME280;4220;42.502;24.188;2023-03-22T01:34:51;94806.94;;;11.18;100.00
8366;BME280;4220;42.502;24.188;2023-03-22T01:37:18;94806.47;;;10.98;100.00
8366;BME280;4220;42.502;24.188;2023-03-22T01:39:46;94768.66;;;10.68;100.00
8366;BME280;4220;42.502;24.188;2023-03-22T01:42:13;94814.66;;;10.97;100.00
8366;BME280;4220;42.502;24.188;2023-03-22T01:44:42;94808.56;;;10.96;100.00
8366;BME280;4220;42.502;24.188;2023-03-22T01:47:11;94813.28;;;11.06;100.00
8366;BME280;4220;42.502;24.188;2023-03-22T01:49:38;94802.69;;;11.18;100.00
8366;BME280;4220;42.502;24.188;2023-03-22T01:52:10;94808.78;;;11.18;100.00
8366;BME280;4220;42.502;24.188;2023-03-22T01:54:41;94809.25;;;11.27;100.00
8366;BME280;4220;42.502;24.188;2023-03-22T01:57:09;94809.25;;;11.03;100.00
8366;BME280;4220;42.502;24.188;2023-03-22T01:59:37;94805.66;;;10.75;100.00
8366;BME280;4220;42.502;24.188;2023-03-22T02:02:04;94813.13;;;10.55;100.00
8366;BME280;4220;42.502;24.188;2023-03-22T02:04:33;94806.50;;;10.34;100.00
8366;BME280;4220;42.502;24.188;2023-03-22T02:07:04;94806.84;;;10.37;100.00
8366;BME280;4220;42.502;24.188;2023-03-22T02:09:36;94763.28;;;10.22;100.00
8366;BME280;4220;42.502;24.188;2023-03-22T02:12:14;94811.28;;;10.55;100.00
8366;BME280;4220;42.502;24.188;2023-03-22T02:14:53;94809.13;;;10.64;100.00
8366;BME280;4220;42.502;24.188;2023-03-22T02:17:30;94800.81;;;10.72;100.00
8366;BME280;4220;42.502;24.188;2023-03-22T02:23:21;94815.13;;;10.82;100.00
8366;BME280;4220;42.502;24.188;2023-03-22T02:26:20;94813.28;;;10.83;100.00
8366;BME280;4220;42.502;24.188;2023-03-22T02:28:59;94817.56;;;10.95;100.00
8366;BME280;4220;42.502;24.188;2023-03-22T02:31:45;94819.97;;;10.97;100.00
8366;BME280;4220;42.502;24.188;2023-03-22T02:37:36;94821.72;;;11.14;100.00
8366;BME280;4220;42.502;24.188;2023-03-22T02:40:12;94822.66;;;11.20;100.00
8366;BME280;4220;42.502;24.188;2023-03-22T02:42:47;94829.66;;;11.26;100.00
8366;BME280;4220;42.502;24.188;2023-03-22T02:45:19;94823.78;;;11.24;100.00
8366;BME280;4220;42.502;24.188;2023-03-22T02:47:56;94835.22;;;11.25;100.00
8366;BME280;4220;42.502;24.188;2023-03-22T02:50:28;94844.88;;;10.96;100.00
8366;BME280;4220;42.502;24.188;2023-03-22T02:53:02;94835.19;;;10.90;100.00
8366;BME280;4220;42.502;24.188;2023-03-22T02:55:34;94842.09;;;10.79;100.00
8366;BME280;4220;42.502;24.188;2023-03-22T02:58:06;94841.97;;;10.74;100.00
8366;BME280;4220;42.502;24.188;2023-03-22T03:00:36;94829.00;;;10.43;100.00
8366;BME280;4220;42.502;24.188;2023-03-22T03:03:06;94840.03;;;10.40;100.00
8366;BME280;4220;42.502;24.188;2023-03-22T03:05:37;94793.09;;;9.99;100.00
8366;BME280;4220;42.502;24.188;2023-03-22T03:08:05;94835.53;;;10.11;100.00
8366;BME280;4220;42.502;24.188;2023-03-22T03:10:34;94843.16;;;10.07;100.00
8366;BME280;4220;42.502;24.188;2023-03-22T03:13:01;94842.03;;;10.15;100.00
8366;BME280;4220;42.502;24.188;2023-03-22T03:15:28;94790.63;;;9.86;100.00
8366;BME280;4220;42.502;24.188;2023-03-22T03:18:08;94841.88;;;10.10;100.00
8366;BME280;4220;42.502;24.188;2023-03-22T03:20:45;94838.03;;;10.24;100.00
8366;BME280;4220;42.502;24.188;2023-03-22T03:23:24;94831.38;;;10.33;100.00
8366;BME280;4220;42.502;24.188;2023-03-22T03:25:58;94836.28;;;10.47;100.00
8366;BME280;4220;42.502;24.188;2023-03-22T03:28:34;94830.16;;;10.47;100.00
8366;BME280;4220;42.502;24.188;2023-03-22T03:31:09;94837.91;;;10.48;100.00
8366;BME280;4220;42.502;24.188;2023-03-22T03:33:44;94843.75;;;10.39;100.00
8366;BME280;4220;42.502;24.188;2023-03-22T03:36:15;94837.22;;;10.23;100.00
8366;BME280;4220;42.502;24.188;2023-03-22T03:38:45;94840.44;;;10.14;100.00
8366;BME280;4220;42.502;24.188;2023-03-22T03:41:16;94838.50;;;10.21;100.00
8366;BME280;4220;42.502;24.188;2023-03-22T03:43:45;94843.16;;;10.37;100.00
8366;BME280;4220;42.502;24.188;2023-03-22T03:46:14;94847.69;;;10.48;100.00
8366;BME280;4220;42.502;24.188;2023-03-22T03:48:43;94843.66;;;10.45;100.00
8366;BME280;4220;42.502;24.188;2023-03-22T03:51:11;94846.09;;;10.59;100.00
8366;BME280;4220;42.502;24.188;2023-03-22T03:53:38;94847.41;;;10.68;100.00
8366;BME280;4220;42.502;24.188;2023-03-22T03:56:05;94849.47;;;10.66;100.00
8366;BME280;4220;42.502;24.188;2023-03-22T03:58:34;94848.53;;;10.72;100.00
8366;BME280;4220;42.502;24.188;2023-03-22T04:01:01;94849.47;;;10.66;100.00
8366;BME280;4220;42.502;24.188;2023-03-22T04:03:28;94840.31;;;10.50;100.00
8366;BME280;4220;42.502;24.188;2023-03-22T04:05:55;94842.66;;;10.58;100.00
8366;BME280;4220;42.502;24.188;2023-03-22T04:08:24;94851.06;;;10.67;100.00
8366;BME280;4220;42.502;24.188;2023-03-22T04:10:51;94807.78;;;10.43;100.00
8366;BME280;4220;42.502;24.188;2023-03-22T04:13:18;94852.13;;;10.77;100.00
8366;BME280;4220;42.502;24.188;2023-03-22T04:15:51;94851.56;;;10.87;100.00
8366;BME280;4220;42.502;24.188;2023-03-22T04:18:18;94851.94;;;10.90;100.00
8366;BME280;4220;42.502;24.188;2023-03-22T04:20:45;94857.38;;;10.95;100.00
8366;BME280;4220;42.502;24.188;2023-03-22T04:23:14;94820.75;;;10.74;100.00
8366;BME280;4220;42.502;24.188;2023-03-22T04:25:40;94851.56;;;10.98;100.00
8366;BME280;4220;42.502;24.188;2023-03-22T04:28:08;94816.38;;;10.80;100.00
8366;BME280;4220;42.502;24.188;2023-03-22T04:30:35;94863.38;;;11.14;100.00
8366;BME280;4220;42.502;24.188;2023-03-22T04:33:03;94824.22;;;10.86;100.00
8366;BME280;4220;42.502;24.188;2023-03-22T04:35:32;94869.81;;;11.18;100.00
8366;BME280;4220;42.502;24.188;2023-03-22T04:37:59;94875.38;;;11.16;100.00
8366;BME280;4220;42.502;24.188;2023-03-22T04:40:26;94879.97;;;11.21;100.00
8366;BME280;4220;42.502;24.188;2023-03-22T04:42:56;94867.75;;;11.08;100.00
8366;BME280;4220;42.502;24.188;2023-03-22T04:45:23;94875.81;;;10.90;100.00
8366;BME280;4220;42.502;24.188;2023-03-22T04:47:53;94881.56;;;10.87;100.00
8366;BME280;4220;42.502;24.188;2023-03-22T04:50:22;94890.69;;;10.91;100.00
8366;BME280;4220;42.502;24.188;2023-03-22T04:52:49;94898.50;;;10.86;100.00
8366;BME280;4220;42.502;24.188;2023-03-22T04:55:16;94895.84;;;10.86;100.00
8366;BME280;4220;42.502;24.188;2023-03-22T04:57:43;94897.94;;;10.84;100.00
8366;BME280;4220;42.502;24.188;2023-03-22T05:00:11;94881.88;;;10.79;100.00
8366;BME280;4220;42.502;24.188;2023-03-22T05:02:38;94890.78;;;10.73;100.00
8366;BME280;4220;42.502;24.188;2023-03-22T05:05:06;94898.50;;;10.75;100.00
8366;BME280;4220;42.502;24.188;2023-03-22T05:07:34;94906.22;;;10.76;100.00
8366;BME280;4220;42.502;24.188;2023-03-22T05:10:01;94899.63;;;10.67;100.00
8366;BME280;4220;42.502;24.188;2023-03-22T05:12:28;94912.56;;;10.75;100.00
8366;BME280;4220;42.502;24.188;2023-03-22T05:14:55;94914.63;;;10.73;100.00
8366;BME280;4220;42.502;24.188;2023-03-22T05:17:21;94914.28;;;10.70;100.00
8366;BME280;4220;42.502;24.188;2023-03-22T05:19:48;94922.03;;;10.71;100.00
8366;BME280;4220;42.502;24.188;2023-03-22T05:22:16;94927.09;;;10.73;100.00
8366;BME280;4220;42.502;24.188;2023-03-22T05:24:45;94922.53;;;10.62;100.00
8366;BME280;4220;42.502;24.188;2023-03-22T05:27:11;94924.28;;;10.56;100.00
8366;BME280;4220;42.502;24.188;2023-03-22T05:29:39;94931.19;;;10.57;100.00
8366;BME280;4220;42.502;24.188;2023-03-22T05:32:09;94933.63;;;10.59;100.00
8366;BME280;4220;42.502;24.188;2023-03-22T05:34:36;94934.91;;;10.68;100.00
8366;BME280;4220;42.502;24.188;2023-03-22T05:37:06;94928.22;;;10.65;100.00
8366;BME280;4220;42.502;24.188;2023-03-22T05:39:33;94931.31;;;10.62;100.00
8366;BME280;4220;42.502;24.188;2023-03-22T05:42:01;94936.41;;;10.64;100.00
8366;BME280;4220;42.502;24.188;2023-03-22T05:44:28;94941.59;;;10.70;100.00
8366;BME280;4220;42.502;24.188;2023-03-22T05:46:54;94945.22;;;10.76;100.00
8366;BME280;4220;42.502;24.188;2023-03-22T05:49:21;94946.38;;;10.80;100.00
8366;BME280;4220;42.502;24.188;2023-03-22T05:51:49;94945.56;;;10.79;100.00
8366;BME280;4220;42.502;24.188;2023-03-22T05:54:15;94951.63;;;10.68;100.00
8366;BME280;4220;42.502;24.188;2023-03-22T05:56:42;94947.22;;;10.62;100.00
8366;BME280;4220;42.502;24.188;2023-03-22T05:59:11;94956.38;;;10.66;100.00
8366;BME280;4220;42.502;24.188;2023-03-22T06:01:38;94964.09;;;10.68;100.00
8366;BME280;4220;42.502;24.188;2023-03-22T06:04:05;94961.19;;;10.69;100.00
8366;BME280;4220;42.502;24.188;2023-03-22T06:06:32;94961.06;;;10.64;100.00
8366;BME280;4220;42.502;24.188;2023-03-22T06:08:59;94968.13;;;10.70;100.00
8366;BME280;4220;42.502;24.188;2023-03-22T06:11:25;94967.41;;;10.63;100.00
8366;BME280;4220;42.502;24.188;2023-03-22T06:13:52;94962.19;;;10.57;100.00
8366;BME280;4220;42.502;24.188;2023-03-22T06:16:20;94975.38;;;10.63;100.00
8366;BME280;4220;42.502;24.188;2023-03-22T06:18:47;94982.13;;;10.59;100.00
8366;BME280;4220;42.502;24.188;2023-03-22T06:21:14;94987.13;;;10.67;100.00
8366;BME280;4220;42.502;24.188;2023-03-22T06:23:41;94989.34;;;10.70;100.00
8366;BME280;4220;42.502;24.188;2023-03-22T06:26:09;94986.13;;;10.68;100.00
8366;BME280;4220;42.502;24.188;2023-03-22T06:28:36;94979.09;;;10.44;100.00
8366;BME280;4220;42.502;24.188;2023-03-22T06:31:05;94943.81;;;10.25;100.00
8366;BME280;4220;42.502;24.188;2023-03-22T06:33:34;95000.41;;;10.67;100.00
8366;BME280;4220;42.502;24.188;2023-03-22T06:36:02;95002.16;;;10.73;100.00
8366;BME280;4220;42.502;24.188;2023-03-22T06:38:29;95004.81;;;10.73;100.00
8366;BME280;4220;42.502;24.188;2023-03-22T06:40:56;95012.09;;;10.78;100.00
8366;BME280;4220;42.502;24.188;2023-03-22T06:43:23;95007.81;;;10.77;100.00
8366;BME280;4220;42.502;24.188;2023-03-22T06:45:50;95008.41;;;10.79;100.00
8366;BME280;4220;42.502;24.188;2023-03-22T06:48:16;94994.34;;;10.78;100.00
8366;BME280;4220;42.502;24.188;2023-03-22T06:50:45;95018.59;;;10.93;100.00
8366;BME280;4220;42.502;24.188;2023-03-22T06:53:11;95015.75;;;10.95;100.00
8366;BME280;4220;42.502;24.188;2023-03-22T06:55:38;95008.22;;;10.92;100.00
8366;BME280;4220;42.502;24.188;2023-03-22T06:58:05;95019.50;;;11.05;100.00
8366;BME280;4220;42.502;24.188;2023-03-22T07:00:32;95024.31;;;11.08;100.00
8366;BME280;4220;42.502;24.188;2023-03-22T07:02:59;95029.56;;;11.15;100.00
8366;BME280;4220;42.502;24.188;2023-03-22T07:05:26;95032.91;;;11.22;100.00
8366;BME280;4220;42.502;24.188;2023-03-22T07:07:54;95030.25;;;11.10;100.00
8366;BME280;4220;42.502;24.188;2023-03-22T07:10:21;95040.09;;;11.03;100.00
8366;BME280;4220;42.502;24.188;2023-03-22T07:12:48;95027.78;;;11.09;100.00
8366;BME280;4220;42.502;24.188;2023-03-22T07:15:15;95028.66;;;10.91;100.00
8366;BME280;4220;42.502;24.188;2023-03-22T07:17:43;95038.53;;;10.84;100.00
8366;BME280;4220;42.502;24.188;2023-03-22T07:20:10;95041.97;;;10.73;100.00
8366;BME280;4220;42.502;24.188;2023-03-22T07:22:37;95007.16;;;10.52;100.00
8366;BME280;4220;42.502;24.188;2023-03-22T07:25:06;95045.25;;;10.87;100.00
8366;BME280;4220;42.502;24.188;2023-03-22T07:27:33;95042.97;;;10.90;100.00
8366;BME280;4220;42.502;24.188;2023-03-22T07:29:59;95039.97;;;10.98;100.00
8366;BME280;4220;42.502;24.188;2023-03-22T07:32:26;95048.44;;;10.77;100.00
8366;BME280;4220;42.502;24.188;2023-03-22T07:34:53;95042.75;;;10.74;100.00
8366;BME280;4220;42.502;24.188;2023-03-22T07:37:20;95046.97;;;10.63;100.00
8366;BME280;4220;42.502;24.188;2023-03-22T07:39:46;95047.25;;;10.55;100.00
8366;BME280;4220;42.502;24.188;2023-03-22T07:42:15;95049.81;;;10.62;100.00
8366;BME280;4220;42.502;24.188;2023-03-22T07:44:42;95049.69;;;10.75;100.00
8366;BME280;4220;42.502;24.188;2023-03-22T07:47:08;95048.03;;;10.74;100.00
8366;BME280;4220;42.502;24.188;2023-03-22T07:49:35;95044.28;;;10.81;100.00
8366;BME280;4220;42.502;24.188;2023-03-22T07:52:02;95045.34;;;10.80;100.00
8366;BME280;4220;42.502;24.188;2023-03-22T07:54:29;95039.72;;;10.88;100.00
8366;BME280;4220;42.502;24.188;2023-03-22T07:56:57;95040.88;;;10.92;100.00
8366;BME280;4220;42.502;24.188;2023-03-22T07:59:25;95042.25;;;10.83;100.00
8366;BME280;4220;42.502;24.188;2023-03-22T08:01:52;95039.88;;;10.75;100.00
8366;BME280;4220;42.502;24.188;2023-03-22T08:04:19;95038.09;;;10.69;100.00
8366;BME280;4220;42.502;24.188;2023-03-22T08:06:46;95043.34;;;10.76;100.00
8366;BME280;4220;42.502;24.188;2023-03-22T08:09:14;95041.69;;;10.93;100.00
8366;BME280;4220;42.502;24.188;2023-03-22T08:11:41;95043.97;;;11.19;100.00
8366;BME280;4220;42.502;24.188;2023-03-22T08:14:07;95051.56;;;11.15;100.00
8366;BME280;4220;42.502;24.188;2023-03-22T08:16:36;95050.59;;;11.28;100.00
8366;BME280;4220;42.502;24.188;2023-03-22T08:19:03;95049.91;;;11.33;100.00
8366;BME280;4220;42.502;24.188;2023-03-22T08:21:30;95058.00;;;11.38;100.00
8366;BME280;4220;42.502;24.188;2023-03-22T08:23:57;95045.91;;;11.42;100.00
8366;BME280;4220;42.502;24.188;2023-03-22T08:26:24;95054.91;;;11.41;100.00
8366;BME280;4220;42.502;24.188;2023-03-22T08:28:51;95057.47;;;11.47;100.00
8366;BME280;4220;42.502;24.188;2023-03-22T08:31:18;94983.00;;;11.01;100.00
8366;BME280;4220;42.502;24.188;2023-03-22T08:33:47;95009.03;;;11.22;100.00
8366;BME280;4220;42.502;24.188;2023-03-22T08:36:16;95059.44;;;11.52;100.00
8366;BME280;4220;42.502;24.188;2023-03-22T08:38:43;95018.03;;;11.33;100.00
8366;BME280;4220;42.502;24.188;2023-03-22T08:41:11;95054.06;;;11.70;100.00
8366;BME280;4220;42.502;24.188;2023-03-22T08:43:38;95058.72;;;11.98;100.00
8366;BME280;4220;42.502;24.188;2023-03-22T08:46:05;95061.84;;;12.18;100.00
8366;BME280;4220;42.502;24.188;2023-03-22T08:48:32;95065.53;;;12.40;100.00
8366;BME280;4220;42.502;24.188;2023-03-22T08:51:01;95053.84;;;12.41;100.00
8366;BME280;4220;42.502;24.188;2023-03-22T08:53:29;95070.41;;;12.43;100.00
8366;BME280;4220;42.502;24.188;2023-03-22T08:55:56;95065.28;;;12.65;100.00
8366;BME280;4220;42.502;24.188;2023-03-22T08:58:26;95058.28;;;12.75;100.00
8366;BME280;4220;42.502;24.188;2023-03-22T09:00:53;95077.91;;;12.97;100.00
8366;BME280;4220;42.502;24.188;2023-03-22T09:03:20;95077.50;;;13.17;100.00
8366;BME280;4220;42.502;24.188;2023-03-22T09:05:48;95071.72;;;13.20;100.00
8366;BME280;4220;42.502;24.188;2023-03-22T09:08:16;95087.44;;;13.33;100.00
8366;BME280;4220;42.502;24.188;2023-03-22T09:10:43;95077.25;;;13.30;100.00
8366;BME280;4220;42.502;24.188;2023-03-22T09:13:12;95073.97;;;13.12;100.00
8366;BME280;4220;42.502;24.188;2023-03-22T09:15:42;95069.22;;;13.02;100.00
8366;BME280;4220;42.502;24.188;2023-03-22T09:18:09;95060.31;;;12.96;100.00
8366;BME280;4220;42.502;24.188;2023-03-22T09:20:36;95081.63;;;12.96;100.00
8366;BME280;4220;42.502;24.188;2023-03-22T09:23:03;95078.75;;;12.86;100.00
8366;BME280;4220;42.502;24.188;2023-03-22T09:25:31;95077.78;;;12.53;100.00
8366;BME280;4220;42.502;24.188;2023-03-22T09:27:58;95076.16;;;12.52;100.00
8366;BME280;4220;42.502;24.188;2023-03-22T09:30:25;95075.13;;;12.41;99.02
8366;BME280;4220;42.502;24.188;2023-03-22T09:32:53;95076.75;;;12.30;100.00
8366;BME280;4220;42.502;24.188;2023-03-22T09:35:20;95069.00;;;12.52;98.92
8366;BME280;4220;42.502;24.188;2023-03-22T09:37:47;95076.69;;;12.77;97.22
8366;BME280;4220;42.502;24.188;2023-03-22T09:40:17;95073.50;;;13.03;96.37
8366;BME280;4220;42.502;24.188;2023-03-22T09:42:47;95074.00;;;13.28;95.53
8366;BME280;4220;42.502;24.188;2023-03-22T09:45:18;95073.88;;;13.51;94.81
8366;BME280;4220;42.502;24.188;2023-03-22T09:47:49;95069.00;;;13.76;94.46
8366;BME280;4220;42.502;24.188;2023-03-22T09:50:19;95068.94;;;14.05;93.77
8366;BME280;4220;42.502;24.188;2023-03-22T09:52:47;95037.44;;;14.02;93.22
8366;BME280;4220;42.502;24.188;2023-03-22T09:55:20;95076.13;;;14.37;91.31
8366;BME280;4220;42.502;24.188;2023-03-22T09:57:56;95083.97;;;14.44;89.14
8366;BME280;4220;42.502;24.188;2023-03-22T10:00:33;95080.06;;;14.52;89.61
8366;BME280;4220;42.502;24.188;2023-03-22T10:03:12;95086.03;;;14.59;90.58
8366;BME280;4220;42.502;24.188;2023-03-22T10:05:43;95087.97;;;14.63;89.71
8366;BME280;4220;42.502;24.188;2023-03-22T10:08:35;95086.16;;;14.14;88.61
8366;BME280;4220;42.502;24.188;2023-03-22T10:11:14;95090.19;;;14.00;89.25
8366;BME280;4220;42.502;24.188;2023-03-22T10:13:50;95095.44;;;13.95;90.34
8366;BME280;4220;42.502;24.188;2023-03-22T10:16:25;95093.41;;;14.02;90.09
8366;BME280;4220;42.502;24.188;2023-03-22T10:18:55;95085.31;;;14.13;92.10
8366;BME280;4220;42.502;24.188;2023-03-22T10:21:25;95083.31;;;13.87;96.17
8366;BME280;4220;42.502;24.188;2023-03-22T10:23:55;95089.28;;;13.33;97.93
8366;BME280;4220;42.502;24.188;2023-03-22T10:26:26;95079.56;;;12.75;100.00
8366;BME280;4220;42.502;24.188;2023-03-22T10:28:58;95090.03;;;12.54;100.00
8366;BME280;4220;42.502;24.188;2023-03-22T10:31:28;95081.25;;;12.30;100.00
8366;BME280;4220;42.502;24.188;2023-03-22T10:33:58;95084.16;;;12.28;100.00
8366;BME280;4220;42.502;24.188;2023-03-22T10:36:29;95083.34;;;12.28;100.00
8366;BME280;4220;42.502;24.188;2023-03-22T10:39:02;95078.13;;;12.44;100.00
8366;BME280;4220;42.502;24.188;2023-03-22T10:41:31;95068.91;;;12.35;100.00
8366;BME280;4220;42.502;24.188;2023-03-22T10:44:01;95073.41;;;12.35;100.00
8366;BME280;4220;42.502;24.188;2023-03-22T10:46:34;95032.25;;;12.14;100.00
8366;BME280;4220;42.502;24.188;2023-03-22T10:49:02;95077.44;;;12.37;98.15
8366;BME280;4220;42.502;24.188;2023-03-22T10:51:34;95071.78;;;12.22;97.22
8366;BME280;4220;42.502;24.188;2023-03-22T10:54:02;95077.44;;;12.14;98.82
8366;BME280;4220;42.502;24.188;2023-03-22T10:56:30;95077.44;;;12.14;99.83
8366;BME280;4220;42.502;24.188;2023-03-22T10:58:57;95067.16;;;12.29;98.76
8366;BME280;4220;42.502;24.188;2023-03-22T11:01:28;95037.78;;;12.24;98.72
8366;BME280;4220;42.502;24.188;2023-03-22T11:03:58;95064.94;;;12.50;99.83
8366;BME280;4220;42.502;24.188;2023-03-22T11:06:27;95017.09;;;12.38;100.00
8366;BME280;4220;42.502;24.188;2023-03-22T11:08:59;95066.00;;;12.88;100.00
8366;BME280;4220;42.502;24.188;2023-03-22T11:11:28;95061.78;;;13.16;100.00
8366;BME280;4220;42.502;24.188;2023-03-22T11:14:03;95065.78;;;13.30;95.17
8366;BME280;4220;42.502;24.188;2023-03-22T11:16:40;95066.78;;;13.40;94.21
8366;BME280;4220;42.502;24.188;2023-03-22T11:19:14;95064.25;;;13.34;93.26
8366;BME280;4220;42.502;24.188;2023-03-22T11:21:44;95061.78;;;13.44;93.32
8366;BME280;4220;42.502;24.188;2023-03-22T11:24:12;95056.88;;;13.69;92.91
8366;BME280;4220;42.502;24.188;2023-03-22T11:26:40;95046.72;;;13.99;93.03
8366;BME280;4220;42.502;24.188;2023-03-22T11:29:15;95053.81;;;14.44;93.70
8366;BME280;4220;42.502;24.188;2023-03-22T11:31:53;95059.78;;;14.72;92.44
8366;BME280;4220;42.502;24.188;2023-03-22T11:34:22;95055.94;;;14.85;92.19
8366;BME280;4220;42.502;24.188;2023-03-22T11:36:49;95051.00;;;14.93;91.82
8366;BME280;4220;42.502;24.188;2023-03-22T11:39:21;95051.50;;;14.90;90.54
8366;BME280;4220;42.502;24.188;2023-03-22T11:41:49;95049.38;;;14.92;88.62
8366;BME280;4220;42.502;24.188;2023-03-22T11:44:18;95042.91;;;14.88;86.02
8366;BME280;4220;42.502;24.188;2023-03-22T11:46:54;95048.25;;;14.88;85.67
8366;BME280;4220;42.502;24.188;2023-03-22T11:49:24;95049.50;;;14.59;85.93
8366;BME280;4220;42.502;24.188;2023-03-22T11:51:53;95054.25;;;14.57;86.64
8366;BME280;4220;42.502;24.188;2023-03-22T11:54:26;95054.13;;;14.47;87.25
8366;BME280;4220;42.502;24.188;2023-03-22T11:56:57;95045.00;;;14.43;88.53
8366;BME280;4220;42.502;24.188;2023-03-22T11:59:29;95046.13;;;14.47;88.29
8366;BME280;4220;42.502;24.188;2023-03-22T12:02:02;95047.66;;;14.43;87.15
8366;BME280;4220;42.502;24.188;2023-03-22T12:04:33;95055.72;;;14.48;86.60
8366;BME280;4220;42.502;24.188;2023-03-22T12:07:05;95053.66;;;14.17;87.13
8366;BME280;4220;42.502;24.188;2023-03-22T12:09:40;95051.31;;;14.04;86.22
8366;BME280;4220;42.502;24.188;2023-03-22T12:12:12;95047.34;;;14.06;85.98
8366;BME280;4220;42.502;24.188;2023-03-22T12:14:46;95038.38;;;14.12;86.12
8366;BME280;4220;42.502;24.188;2023-03-22T12:17:20;95035.78;;;14.01;85.06
8366;BME280;4220;42.502;24.188;2023-03-22T12:19:57;95033.41;;;13.66;86.00
8366;BME280;4220;42.502;24.188;2023-03-22T12:22:32;95041.31;;;13.77;86.85
8366;BME280;4220;42.502;24.188;2023-03-22T12:25:00;95039.19;;;13.96;87.04
8366;BME280;4220;42.502;24.188;2023-03-22T12:27:32;95033.53;;;14.09;87.36
8366;BME280;4220;42.502;24.188;2023-03-22T12:30:03;95029.84;;;13.77;88.65
8366;BME280;4220;42.502;24.188;2023-03-22T12:32:35;95040.38;;;13.39;89.81
8366;BME280;4220;42.502;24.188;2023-03-22T12:35:07;95041.34;;;13.49;90.40
8366;BME280;4220;42.502;24.188;2023-03-22T12:37:38;95024.84;;;13.19;92.76
8366;BME280;4220;42.502;24.188;2023-03-22T12:40:14;95028.53;;;13.18;92.35
8366;BME280;4220;42.502;24.188;2023-03-22T12:42:49;95027.50;;;13.19;92.89
8366;BME280;4220;42.502;24.188;2023-03-22T12:45:19;95020.41;;;13.25;93.17
8366;BME280;4220;42.502;24.188;2023-03-22T12:47:52;95021.66;;;13.34;94.51
8366;BME280;4220;42.502;24.188;2023-03-22T12:50:24;95024.81;;;13.64;93.44
8366;BME280;4220;42.502;24.188;2023-03-22T12:52:54;95024.75;;;13.75;93.39
8366;BME280;4220;42.502;24.188;2023-03-22T12:55:24;95031.84;;;14.03;91.16
8366;BME280;4220;42.502;24.188;2023-03-22T12:57:52;95016.09;;;13.85;91.29
8366;BME280;4220;42.502;24.188;2023-03-22T13:00:24;95028.53;;;13.96;90.51
8366;BME280;4220;42.502;24.188;2023-03-22T13:02:57;95026.91;;;13.78;91.91
8366;BME280;4220;42.502;24.188;2023-03-22T13:05:27;95031.25;;;13.35;93.49
8366;BME280;4220;42.502;24.188;2023-03-22T13:07:54;95040.84;;;13.07;95.72
8366;BME280;4220;42.502;24.188;2023-03-22T13:10:49;95033.91;;;12.67;99.24
8366;BME280;4220;42.502;24.188;2023-03-22T13:13:45;95029.09;;;12.52;100.00
8366;BME280;4220;42.502;24.188;2023-03-22T13:16:20;95012.44;;;12.33;100.00
8366;BME280;4220;42.502;24.188;2023-03-22T13:19:17;95023.22;;;12.27;100.00
8366;BME280;4220;42.502;24.188;2023-03-22T13:22:19;95021.72;;;12.19;98.90